createdAt,value
2023-04-15T00:00:55.912Z,8.43
2023-04-15T00:03:46.850Z,8.42
2023-04-15T00:07:16.015Z,8.37
2023-04-15T00:10:08.369Z,8.57
2023-04-15T00:20:25.405Z,8.46
2023-04-15T00:24:01.863Z,8.37
2023-04-15T00:27:32.350Z,8.39
2023-04-15T00:34:22.914Z,8.57
2023-04-15T00:37:18.533Z,8.76
2023-04-15T00:40:31.141Z,8.55
2023-04-15T00:44:06.350Z,8.75
2023-04-15T00:47:32.138Z,8.50
2023-04-15T00:50:45.257Z,8.72
2023-04-15T00:58:16.604Z,8.67
2023-04-15T01:01:38.684Z,8.77
2023-04-15T01:04:37.842Z,8.63
2023-04-15T01:07:32.887Z,8.62
2023-04-15T01:11:06.452Z,8.49
2023-04-15T01:13:59.555Z,8.50
2023-04-15T01:16:51.468Z,8.61
2023-04-15T01:19:41.971Z,8.49
2023-04-15T01:22:46.022Z,8.62
2023-04-15T01:25:33.772Z,8.49
2023-04-15T01:28:20.750Z,8.65
2023-04-15T01:31:10.934Z,8.69
2023-04-15T01:34:07.428Z,8.65
2023-04-15T01:37:11.529Z,8.67
2023-04-15T01:40:31.324Z,8.37
2023-04-15T01:43:28.521Z,8.58
2023-04-15T01:46:18.034Z,8.31
2023-04-15T01:49:04.785Z,8.63
2023-04-15T01:51:55.147Z,8.49
2023-04-15T01:54:46.250Z,8.44
2023-04-15T01:57:36.210Z,8.61
2023-04-15T02:00:27.616Z,8.47
2023-04-15T02:03:14.466Z,8.53
2023-04-15T02:06:06.168Z,8.46
2023-04-15T02:09:19.428Z,8.56
2023-04-15T02:12:27.679Z,8.45
2023-04-15T02:15:28.454Z,8.52
2023-04-15T02:18:53.448Z,8.26
2023-04-15T02:22:03.684Z,8.38
2023-04-15T02:24:59.855Z,8.50
2023-04-15T02:27:54.839Z,8.69
2023-04-15T02:30:56.552Z,8.72
2023-04-15T02:34:12.248Z,8.82
2023-04-15T02:37:46.361Z,8.76
2023-04-15T02:45:12.387Z,8.49
2023-04-15T02:48:08.960Z,8.88
2023-04-15T02:51:24.602Z,8.91
2023-04-15T02:54:27.279Z,8.83
2023-04-15T02:57:22.874Z,8.83
2023-04-15T03:00:14.797Z,8.85
2023-04-15T03:03:17.249Z,8.90
2023-04-15T03:06:09.266Z,9.08
2023-04-15T03:08:57.257Z,8.99
2023-04-15T03:11:53.775Z,8.91
2023-04-15T03:14:48.122Z,9.07
2023-04-15T03:18:02.006Z,8.98
2023-04-15T03:24:20.216Z,9.08
2023-04-15T03:27:11.017Z,8.84
2023-04-15T03:30:09.001Z,8.83
2023-04-15T03:33:05.421Z,8.87
2023-04-15T03:36:22.436Z,8.84
2023-04-15T03:39:24.852Z,9.01
2023-04-15T03:42:56.246Z,8.70
2023-04-15T03:46:11.278Z,9.02
2023-04-15T03:52:54.378Z,8.96
2023-04-15T03:55:47.194Z,8.88
2023-04-15T03:59:17.879Z,8.80
2023-04-15T04:03:10.030Z,8.57
2023-04-15T04:05:57.444Z,8.87
2023-04-15T04:08:51.294Z,8.63
2023-04-15T04:11:43.561Z,8.84
2023-04-15T04:14:33.323Z,8.63
2023-04-15T04:17:26.398Z,8.55
2023-04-15T04:20:22.976Z,8.63
2023-04-15T04:23:10.053Z,8.75
2023-04-15T04:25:56.717Z,8.78
2023-04-15T04:28:57.683Z,8.66
2023-04-15T04:31:53.752Z,8.75
2023-04-15T04:34:50.546Z,8.56
2023-04-15T04:38:10.964Z,8.55
2023-04-15T04:41:41.732Z,8.39
2023-04-15T04:52:30.677Z,8.56
2023-04-15T04:56:27.050Z,8.26
2023-04-15T04:59:25.778Z,8.42
2023-04-15T05:05:21.851Z,8.50
2023-04-15T05:08:11.528Z,8.49
2023-04-15T05:11:04.346Z,8.62
2023-04-15T05:13:54.128Z,8.52
2023-04-15T05:16:40.925Z,8.46
2023-04-15T05:19:30.316Z,8.56
2023-04-15T05:22:21.096Z,8.55
2023-04-15T05:25:14.202Z,8.51
2023-04-15T05:28:04.028Z,8.64
2023-04-15T05:30:50.812Z,8.61
2023-04-15T05:33:37.566Z,8.66
2023-04-15T05:36:30.250Z,8.73
2023-04-15T05:39:29.970Z,8.79
2023-04-15T05:42:20.851Z,8.88
2023-04-15T05:45:23.204Z,8.76
2023-04-15T05:48:27.725Z,8.75
2023-04-15T05:51:23.170Z,8.96
2023-04-15T05:54:35.619Z,8.63
2023-04-15T05:57:28.110Z,8.89
2023-04-15T06:03:38.911Z,9.00
2023-04-15T06:06:33.825Z,9.08
2023-04-15T06:09:39.199Z,9.06
2023-04-15T06:17:11.023Z,8.86
2023-04-15T06:28:18.073Z,9.06
2023-04-15T06:35:38.445Z,9.15
2023-04-15T06:53:45.382Z,10.04
2023-04-15T06:58:08.110Z,9.95
2023-04-15T07:06:12.921Z,9.83
2023-04-15T07:10:31.960Z,9.73
2023-04-15T07:13:35.948Z,9.81
2023-04-15T07:16:30.733Z,10.03
2023-04-15T07:19:48.105Z,10.00
2023-04-15T07:22:49.172Z,10.12
2023-04-15T07:26:32.315Z,10.33
2023-04-15T07:29:30.484Z,10.14
2023-04-15T07:32:48.650Z,10.21
2023-04-15T07:39:33.336Z,10.11
2023-04-15T07:42:35.413Z,10.25
2023-04-15T07:50:41.558Z,10.34
2023-04-15T07:54:47.666Z,10.58
2023-04-15T07:58:25.120Z,10.52
2023-04-15T08:02:14.784Z,10.74
2023-04-15T08:05:08.538Z,10.93
2023-04-15T08:08:03.620Z,11.13
2023-04-15T08:10:52.594Z,11.26
2023-04-15T08:14:11.640Z,11.19
2023-04-15T08:17:04.447Z,11.36
2023-04-15T08:20:01.578Z,11.35
2023-04-15T08:23:44.826Z,11.36
2023-04-15T08:30:42.060Z,11.47
2023-04-15T08:33:35.874Z,11.96
2023-04-15T08:36:54.549Z,12.00
2023-04-15T08:43:57.370Z,12.40
2023-04-15T08:46:47.925Z,12.40
2023-04-15T08:49:41.389Z,12.45
2023-04-15T08:52:27.949Z,12.61
2023-04-15T08:55:14.073Z,12.54
2023-04-15T08:58:02.534Z,12.50
2023-04-15T09:00:49.177Z,12.38
2023-04-15T09:03:49.574Z,12.48
2023-04-15T09:08:08.891Z,12.36
2023-04-15T09:37:08.332Z,12.20
2023-04-15T10:30:43.481Z,13.88
2023-04-15T10:34:57.701Z,13.83
2023-04-15T10:39:15.697Z,13.70
2023-04-15T10:42:21.773Z,13.31
2023-04-15T10:45:46.628Z,13.40
2023-04-15T10:49:30.994Z,13.53
2023-04-15T10:52:37.468Z,13.47
2023-04-15T10:55:31.127Z,13.40
2023-04-15T10:59:15.498Z,13.44
2023-04-15T11:02:16.658Z,13.79
2023-04-15T11:05:13.762Z,14.45
2023-04-15T11:08:31.545Z,14.40
2023-04-15T11:18:55.937Z,15.49
2023-04-15T11:25:17.253Z,18.87
2023-04-15T11:28:22.902Z,19.65
2023-04-15T11:31:41.931Z,20.76
2023-04-15T11:38:34.221Z,21.46
2023-04-15T11:42:02.686Z,22.41
2023-04-15T11:45:42.902Z,22.73
2023-04-15T11:48:48.061Z,24.04
2023-04-15T11:51:38.986Z,25.48
2023-04-15T11:54:32.209Z,26.12
2023-04-15T11:58:24.208Z,26.05
2023-04-15T12:00:54.644Z,26.70
2023-04-15T12:03:47.232Z,27.72
2023-04-15T12:06:35.272Z,28.41
2023-04-15T12:09:21.903Z,27.87
2023-04-15T12:12:08.047Z,28.40
2023-04-15T12:15:00.979Z,28.52
2023-04-15T12:17:51.031Z,28.38
2023-04-15T12:20:45.630Z,28.58
2023-04-15T12:23:31.888Z,29.20
2023-04-15T12:26:19.519Z,30.42
2023-04-15T12:29:08.459Z,30.54
2023-04-15T12:32:04.161Z,31.23
2023-04-15T12:34:51.100Z,31.91
2023-04-15T12:37:38.445Z,32.06
2023-04-15T12:40:25.045Z,32.71
2023-04-15T12:43:11.685Z,32.04
2023-04-15T12:45:58.051Z,31.70
2023-04-15T12:48:44.754Z,32.19
2023-04-15T12:51:32.025Z,33.01
2023-04-15T12:54:19.325Z,33.35
2023-04-15T12:57:07.396Z,33.63
2023-04-15T12:59:54.532Z,34.10
2023-04-15T13:02:40.855Z,33.80
2023-04-15T13:05:27.411Z,33.98
2023-04-15T13:08:14.169Z,33.71
2023-04-15T13:11:01.128Z,34.22
2023-04-15T13:13:48.161Z,34.79
2023-04-15T13:16:38.375Z,35.01
2023-04-15T13:19:25.139Z,35.14
2023-04-15T13:22:11.934Z,34.78
2023-04-15T13:24:59.289Z,34.79
2023-04-15T13:27:45.640Z,34.82
2023-04-15T13:30:36.016Z,35.22
2023-04-15T13:33:22.644Z,35.51
2023-04-15T13:36:08.948Z,36.06
2023-04-15T13:38:55.778Z,36.10
2023-04-15T13:41:45.475Z,36.43
2023-04-15T13:44:39.336Z,36.24
2023-04-15T13:47:29.459Z,36.11
2023-04-15T13:50:21.756Z,35.90
2023-04-15T13:53:11.545Z,35.61
2023-04-15T13:55:58.156Z,35.85
2023-04-15T13:58:44.725Z,36.27
2023-04-15T14:01:36.235Z,36.44
2023-04-15T14:04:23.361Z,36.38
2023-04-15T14:07:10.075Z,36.11
2023-04-15T14:09:58.689Z,35.57
2023-04-15T14:12:45.448Z,34.89
2023-04-15T14:15:44.094Z,34.37
2023-04-15T14:18:33.727Z,34.07
2023-04-15T14:21:20.163Z,33.48
2023-04-15T14:24:07.236Z,33.31
2023-04-15T14:26:54.502Z,33.17
2023-04-15T14:29:40.478Z,32.50
2023-04-15T14:32:27.406Z,31.46
2023-04-15T14:35:27.106Z,30.97
2023-04-15T14:38:26.033Z,30.82
2023-04-15T14:41:12.967Z,30.87
2023-04-15T15:10:14.602Z,26.85
2023-04-15T15:13:00.898Z,26.91
2023-04-15T15:15:50.626Z,26.78
2023-04-15T15:18:40.459Z,26.95
2023-04-15T15:21:27.179Z,26.88
2023-04-15T15:24:13.788Z,26.59
2023-04-15T15:27:00.031Z,26.04
2023-04-15T15:34:47.978Z,24.38
2023-04-15T15:45:23.446Z,22.35
2023-04-15T15:48:09.871Z,22.22
2023-04-15T15:50:56.236Z,22.13
2023-04-15T16:05:27.471Z,23.09
2023-04-15T16:08:13.916Z,23.38
2023-04-15T16:11:00.452Z,23.36
2023-04-15T16:13:46.910Z,23.41
2023-04-15T16:16:33.300Z,23.48
2023-04-15T16:19:21.148Z,23.39
2023-04-15T16:22:07.377Z,23.07
2023-04-15T16:24:54.735Z,22.62
2023-04-15T16:27:57.213Z,22.04
2023-04-15T16:30:47.185Z,21.26
2023-04-15T16:33:33.415Z,20.54
2023-04-15T16:36:19.855Z,19.88
2023-04-15T16:39:06.561Z,19.40
2023-04-15T16:41:59.714Z,19.00
2023-04-15T16:44:48.479Z,18.62
2023-04-15T16:47:34.597Z,18.27
2023-04-15T16:50:20.877Z,17.96
2023-04-15T16:53:07.110Z,17.53
2023-04-15T16:55:54.824Z,17.40
2023-04-15T16:58:41.123Z,17.06
2023-04-15T17:01:27.594Z,16.95
2023-04-15T17:04:13.954Z,16.76
2023-04-15T17:07:00.258Z,16.56
2023-04-15T17:09:48.678Z,16.33
2023-04-15T17:12:34.817Z,16.21
2023-04-15T17:15:24.173Z,16.06
2023-04-15T17:18:12.643Z,15.93
2023-04-15T17:20:58.755Z,15.79
2023-04-15T17:23:45.150Z,15.68
2023-04-15T17:26:31.922Z,15.61
2023-04-15T17:29:18.057Z,15.59
2023-04-15T17:32:04.216Z,15.34
2023-04-15T17:34:51.499Z,15.35
2023-04-15T17:37:37.725Z,15.30
2023-04-15T17:40:31.683Z,15.15
2023-04-15T17:43:18.089Z,15.03
2023-04-15T17:46:05.430Z,14.95
2023-04-15T17:48:51.448Z,14.85
2023-04-15T17:51:37.502Z,14.86
2023-04-15T17:54:29.797Z,14.75
2023-04-15T17:57:15.681Z,14.61
2023-04-15T18:00:03.369Z,14.63
2023-04-15T18:03:09.591Z,14.47
2023-04-15T18:05:56.376Z,14.39
2023-04-15T18:08:47.410Z,14.33
2023-04-15T18:11:35.053Z,14.35
2023-04-15T18:14:33.370Z,14.31
2023-04-15T18:17:21.015Z,14.18
2023-04-15T18:20:07.819Z,14.23
2023-04-15T18:22:54.263Z,14.17
2023-04-15T18:25:44.474Z,14.06
2023-04-15T18:28:31.310Z,14.01
2023-04-15T18:31:21.473Z,13.90
2023-04-15T18:34:36.347Z,13.81
2023-04-15T18:37:43.988Z,13.32
2023-04-15T18:40:30.030Z,13.57
2023-04-15T18:43:16.533Z,13.39
2023-04-15T18:46:04.043Z,13.38
2023-04-15T18:48:50.619Z,13.52
2023-04-15T18:51:37.115Z,13.39
2023-04-15T18:54:23.743Z,13.38
2023-04-15T18:57:09.994Z,13.39
2023-04-15T18:59:55.887Z,13.29
2023-04-15T19:02:42.684Z,13.31
2023-04-15T19:05:30.282Z,13.23
2023-04-15T19:08:16.609Z,13.19
2023-04-15T19:11:02.819Z,13.16
2023-04-15T19:13:49.214Z,13.15
2023-04-15T19:16:35.691Z,13.10
2023-04-15T19:19:22.139Z,13.07
2023-04-15T19:22:08.853Z,13.01
2023-04-15T19:24:54.867Z,13.04
2023-04-15T19:27:43.031Z,13.04
2023-04-15T19:30:32.444Z,12.92
2023-04-15T19:33:21.120Z,12.87
2023-04-15T19:36:08.622Z,12.71
2023-04-15T19:39:03.857Z,12.68
2023-04-15T19:41:52.512Z,12.80
2023-04-15T19:44:43.120Z,12.76
2023-04-15T19:47:29.501Z,12.75
2023-04-15T19:50:17.045Z,12.71
2023-04-15T19:53:03.575Z,12.65
2023-04-15T19:55:51.054Z,12.63
2023-04-15T19:58:37.844Z,12.52
2023-04-15T20:01:24.536Z,12.53
2023-04-15T20:04:11.311Z,12.39
2023-04-15T20:07:12.343Z,12.35
2023-04-15T20:10:12.406Z,12.37
2023-04-15T20:12:59.905Z,12.19
2023-04-15T20:15:50.209Z,12.10
2023-04-15T20:18:38.577Z,12.33
2023-04-15T20:21:28.551Z,12.24
2023-04-15T20:24:15.003Z,12.18
2023-04-15T20:27:02.291Z,12.21
2023-04-15T20:29:56.735Z,11.91
2023-04-15T20:32:44.005Z,11.85
2023-04-15T20:35:31.378Z,12.01
2023-04-15T20:38:20.913Z,11.61
2023-04-15T20:41:07.552Z,11.42
2023-04-15T20:43:55.169Z,11.44
2023-04-15T20:46:45.119Z,11.35
2023-04-15T20:49:39.862Z,11.22
2023-04-15T20:52:38.198Z,11.22
2023-04-15T20:55:30.916Z,11.26
2023-04-15T20:58:17.744Z,11.19
2023-04-15T21:01:06.651Z,11.14
2023-04-15T21:03:59.902Z,10.84
2023-04-15T21:06:52.886Z,10.90
2023-04-15T21:09:41.563Z,10.70
2023-04-15T21:12:28.428Z,10.64
2023-04-15T21:15:26.045Z,10.59
2023-04-15T21:18:15.037Z,10.55
2023-04-15T21:21:08.557Z,10.33
2023-04-15T21:24:12.782Z,10.07
2023-04-15T21:27:03.418Z,9.94
2023-04-15T21:29:49.990Z,9.88
2023-04-15T21:32:38.126Z,9.84
2023-04-15T21:35:27.500Z,9.79
2023-04-15T21:38:15.026Z,9.62
2023-04-15T21:41:11.281Z,9.70
2023-04-15T21:43:57.958Z,9.70
2023-04-15T21:46:46.419Z,9.48
2023-04-15T21:49:32.895Z,9.49
2023-04-15T21:52:19.291Z,9.46
2023-04-15T21:55:08.434Z,9.48
2023-04-15T21:58:04.208Z,9.30
2023-04-15T22:00:52.481Z,9.57
2023-04-15T22:03:39.554Z,9.40
2023-04-15T22:06:27.358Z,9.37
2023-04-15T22:09:14.585Z,9.51
2023-04-15T22:12:01.321Z,9.35
2023-04-15T22:14:48.297Z,9.33
2023-04-15T22:17:44.067Z,9.33
2023-04-15T22:20:34.077Z,9.40
2023-04-15T22:23:21.116Z,9.43
2023-04-15T22:26:08.258Z,9.34
2023-04-15T22:28:55.207Z,9.29
2023-04-15T22:32:06.473Z,9.32
2023-04-15T22:34:55.696Z,9.34
2023-04-15T22:37:43.245Z,9.13
2023-04-15T22:40:31.508Z,9.17
2023-04-15T22:43:18.794Z,9.37
2023-04-15T22:46:05.526Z,9.21
2023-04-15T22:48:54.588Z,9.37
2023-04-15T22:51:41.272Z,9.36
2023-04-15T22:54:27.465Z,9.41
2023-04-15T22:57:14.026Z,9.35
2023-04-15T23:00:01.233Z,9.27
2023-04-15T23:02:47.594Z,9.26
2023-04-15T23:05:40.828Z,9.14
2023-04-15T23:08:33.094Z,9.22
2023-04-15T23:12:14.729Z,8.86
2023-04-15T23:15:34.410Z,9.18
2023-04-15T23:18:29.484Z,8.75
2023-04-15T23:21:34.918Z,8.80
2023-04-15T23:28:33.823Z,8.57
2023-04-15T23:32:08.034Z,8.51
2023-04-15T23:34:58.220Z,8.73
2023-04-15T23:37:45.846Z,8.91
2023-04-15T23:40:32.758Z,8.86
2023-04-15T23:43:22.284Z,9.00
2023-04-15T23:46:12.444Z,9.00
2023-04-15T23:49:02.239Z,8.81
2023-04-15T23:51:52.728Z,9.02
2023-04-15T23:54:46.488Z,8.79
